createdAt,value
2022-10-18T00:01:02.231Z,27.20
2022-10-18T00:03:29.758Z,17.83
2022-10-18T00:05:57.787Z,20.52
2022-10-18T00:08:26.586Z,16.27
2022-10-18T00:10:54.702Z,19.52
2022-10-18T00:13:22.669Z,15.13
2022-10-18T00:15:58.188Z,17.77
2022-10-18T00:18:25.932Z,15.85
2022-10-18T00:21:09.712Z,17.63
2022-10-18T00:23:37.546Z,14.90
2022-10-18T00:26:08.427Z,20.05
2022-10-18T00:28:36.843Z,14.40
2022-10-18T00:31:16.824Z,18.10
2022-10-18T00:33:46.528Z,17.15
2022-10-18T00:36:14.765Z,22.60
2022-10-18T00:38:42.203Z,13.65
2022-10-18T00:41:12.037Z,15.70
2022-10-18T00:43:52.906Z,15.48
2022-10-18T00:46:20.481Z,16.83
2022-10-18T00:48:48.986Z,15.88
2022-10-18T00:51:20.018Z,15.90
2022-10-18T00:53:48.136Z,18.90
2022-10-18T00:56:15.613Z,12.63
2022-10-18T00:58:43.337Z,15.38
2022-10-18T01:01:10.683Z,13.63
2022-10-18T01:03:38.298Z,16.08
2022-10-18T01:06:08.279Z,15.18
2022-10-18T01:08:57.186Z,15.75
2022-10-18T01:11:52.525Z,12.18
2022-10-18T01:14:41.118Z,16.48
2022-10-18T01:17:30.400Z,16.60
2022-10-18T01:20:28.439Z,19.98
2022-10-18T01:23:21.924Z,14.00
2022-10-18T01:26:03.863Z,15.07
2022-10-18T01:29:11.503Z,14.57
2022-10-18T01:31:46.686Z,13.27
2022-10-18T01:34:18.065Z,19.45
2022-10-18T01:36:57.086Z,12.05
2022-10-18T01:39:28.849Z,18.50
2022-10-18T01:41:59.546Z,18.00
2022-10-18T01:44:31.334Z,12.55
2022-10-18T01:46:59.826Z,21.10
2022-10-18T01:49:27.759Z,22.17
2022-10-18T01:51:55.187Z,10.13
2022-10-18T01:54:27.727Z,18.52
2022-10-18T01:56:58.628Z,18.92
2022-10-18T02:00:01.761Z,16.95
2022-10-18T02:02:41.792Z,11.43
2022-10-18T02:05:49.263Z,10.25
2022-10-18T02:08:34.783Z,22.17
2022-10-18T02:11:15.261Z,17.02
2022-10-18T02:13:51.980Z,12.73
2022-10-18T02:16:43.423Z,13.10
2022-10-18T02:19:18.280Z,10.80
2022-10-18T02:21:47.805Z,9.70
2022-10-18T02:24:16.349Z,27.83
2022-10-18T02:26:43.987Z,16.65
2022-10-18T02:29:11.643Z,11.50
2022-10-18T02:31:47.255Z,11.07
2022-10-18T02:34:21.598Z,12.30
2022-10-18T02:36:55.839Z,12.80
2022-10-18T02:39:27.482Z,9.95
2022-10-18T02:41:56.078Z,13.75
2022-10-18T02:44:23.559Z,12.45
2022-10-18T02:46:50.882Z,10.85
2022-10-18T02:49:18.196Z,8.40
2022-10-18T02:51:45.548Z,21.50
2022-10-18T02:54:12.883Z,31.60
2022-10-18T02:56:40.199Z,12.63
2022-10-18T02:59:08.193Z,8.43
2022-10-18T03:01:36.372Z,12.65
2022-10-18T03:04:04.619Z,18.27
2022-10-18T03:06:32.950Z,9.05
2022-10-18T03:09:03.362Z,20.98
2022-10-18T03:11:30.745Z,9.30
2022-10-18T03:13:58.062Z,10.90
2022-10-18T03:16:25.518Z,9.80
2022-10-18T03:18:52.867Z,8.65
2022-10-18T03:21:20.204Z,14.32
2022-10-18T03:23:47.572Z,13.35
2022-10-18T03:26:15.015Z,8.82
2022-10-18T03:28:42.666Z,15.43
2022-10-18T03:31:10.068Z,16.85
2022-10-18T03:33:37.410Z,13.43
2022-10-18T03:36:05.039Z,16.50
2022-10-18T03:38:32.328Z,13.45
2022-10-18T03:40:59.677Z,9.68
2022-10-18T03:43:27.028Z,20.75
2022-10-18T03:45:54.489Z,23.55
2022-10-18T03:48:21.893Z,12.43
2022-10-18T03:50:49.211Z,11.13
2022-10-18T03:53:16.653Z,9.15
2022-10-18T03:55:44.052Z,11.88
2022-10-18T03:58:11.529Z,9.63
2022-10-18T04:00:38.828Z,17.10
2022-10-18T04:03:06.187Z,10.93
2022-10-18T04:05:34.536Z,20.30
2022-10-18T04:08:02.270Z,8.25
2022-10-18T04:10:29.709Z,9.80
2022-10-18T04:12:56.996Z,9.70
2022-10-18T04:15:24.260Z,9.52
2022-10-18T04:17:51.530Z,12.52
2022-10-18T04:20:18.868Z,10.65
2022-10-18T04:22:48.917Z,13.98
2022-10-18T04:25:16.617Z,11.10
2022-10-18T04:27:44.493Z,40.33
2022-10-18T04:30:12.001Z,8.07
2022-10-18T04:32:39.453Z,13.48
2022-10-18T04:35:07.601Z,18.85
2022-10-18T04:37:35.812Z,14.20
2022-10-18T04:40:03.880Z,12.30
2022-10-18T04:42:31.305Z,8.75
2022-10-18T04:44:58.691Z,15.18
2022-10-18T04:47:25.982Z,11.85
2022-10-18T04:49:53.315Z,11.60
2022-10-18T04:52:20.582Z,9.25
2022-10-18T04:54:47.919Z,9.05
2022-10-18T04:57:15.204Z,11.32
2022-10-18T04:59:42.644Z,8.02
2022-10-18T05:02:09.963Z,17.30
2022-10-18T05:04:37.284Z,11.48
2022-10-18T05:07:06.545Z,8.93
2022-10-18T05:09:34.178Z,8.43
2022-10-18T05:12:01.465Z,8.82
2022-10-18T05:14:28.797Z,10.77
2022-10-18T05:16:56.158Z,10.73
2022-10-18T05:19:23.533Z,10.05
2022-10-18T05:21:51.475Z,10.60
2022-10-18T05:24:19.629Z,17.85
2022-10-18T05:26:47.709Z,9.73
2022-10-18T05:29:15.222Z,18.27
2022-10-18T05:31:42.831Z,8.88
2022-10-18T05:34:10.216Z,14.98
2022-10-18T05:36:37.595Z,10.75
2022-10-18T05:39:05.467Z,14.27
2022-10-18T05:41:33.478Z,18.38
2022-10-18T05:44:06.925Z,10.38
2022-10-18T05:46:34.533Z,8.45
2022-10-18T05:49:01.922Z,10.32
2022-10-18T05:51:29.382Z,9.98
2022-10-18T05:53:56.795Z,30.60
2022-10-18T05:56:24.160Z,14.63
2022-10-18T05:58:52.117Z,10.55
2022-10-18T06:01:19.813Z,16.60
2022-10-18T06:03:47.652Z,13.05
2022-10-18T06:06:15.600Z,19.83
2022-10-18T06:08:43.770Z,11.20
2022-10-18T06:11:13.918Z,14.52
2022-10-18T06:13:46.807Z,18.17
2022-10-18T06:16:16.289Z,10.35
2022-10-18T06:18:47.180Z,8.65
2022-10-18T06:21:14.566Z,11.02
2022-10-18T06:23:42.010Z,12.15
2022-10-18T06:26:11.555Z,9.88
2022-10-18T06:28:38.984Z,7.97
2022-10-18T06:31:06.920Z,11.63
2022-10-18T06:33:36.970Z,12.73
2022-10-18T06:36:16.932Z,13.52
2022-10-18T06:38:44.823Z,6.88
2022-10-18T06:41:12.466Z,13.82
2022-10-18T06:43:40.357Z,10.52
2022-10-18T06:46:08.931Z,12.57
2022-10-18T06:48:38.533Z,9.30
2022-10-18T06:51:07.105Z,29.42
2022-10-18T06:53:44.261Z,11.88
2022-10-18T06:56:20.948Z,12.07
2022-10-18T06:58:48.463Z,9.10
2022-10-18T07:01:17.531Z,10.27
2022-10-18T07:03:46.559Z,14.13
2022-10-18T07:06:16.798Z,25.38
2022-10-18T07:08:44.747Z,13.90
2022-10-18T07:11:18.161Z,9.60
2022-10-18T07:13:46.035Z,9.25
2022-10-18T07:16:18.404Z,9.93
2022-10-18T07:18:49.636Z,8.15
2022-10-18T07:21:22.006Z,8.05
2022-10-18T07:23:51.023Z,12.25
2022-10-18T07:26:42.528Z,19.88
2022-10-18T07:29:11.873Z,13.65
2022-10-18T07:31:39.324Z,11.10
2022-10-18T07:34:08.219Z,11.20
2022-10-18T07:36:35.607Z,12.82
2022-10-18T07:39:03.304Z,8.95
2022-10-18T07:41:33.393Z,10.10
2022-10-18T07:44:01.250Z,8.57
2022-10-18T07:46:28.741Z,12.32
2022-10-18T07:48:56.435Z,9.93
2022-10-18T07:51:23.797Z,9.13
2022-10-18T07:53:51.313Z,14.50
2022-10-18T07:56:21.786Z,10.55
2022-10-18T07:58:55.498Z,10.82
2022-10-18T08:01:24.390Z,12.52
2022-10-18T08:03:52.924Z,11.13
2022-10-18T08:06:21.860Z,10.60
2022-10-18T08:08:49.576Z,12.05
2022-10-18T08:11:20.044Z,11.73
2022-10-18T08:13:47.878Z,15.25
2022-10-18T08:16:21.048Z,14.35
2022-10-18T08:18:48.561Z,16.27
2022-10-18T08:21:18.315Z,12.70
2022-10-18T08:23:45.974Z,16.20
2022-10-18T08:26:16.143Z,14.65
2022-10-18T08:28:53.592Z,16.60
2022-10-18T08:31:26.004Z,14.55
2022-10-18T08:33:55.644Z,14.23
2022-10-18T08:36:23.636Z,22.23
2022-10-18T08:38:51.139Z,23.50
2022-10-18T08:41:42.851Z,15.95
2022-10-18T08:44:21.663Z,17.38
2022-10-18T08:46:52.399Z,17.02
2022-10-18T08:49:28.488Z,16.13
2022-10-18T08:51:57.846Z,11.98
2022-10-18T08:54:49.600Z,17.42
2022-10-18T08:57:18.351Z,15.13
2022-10-18T08:59:45.836Z,16.05
2022-10-18T09:02:18.963Z,17.63
2022-10-18T09:05:09.113Z,16.48
2022-10-18T09:07:42.507Z,15.00
2022-10-18T09:10:15.695Z,13.18
2022-10-18T09:13:15.740Z,13.70
2022-10-18T09:15:52.700Z,14.77
2022-10-18T09:18:41.165Z,11.18
2022-10-18T09:21:47.115Z,9.63
2022-10-18T09:24:18.209Z,17.00
2022-10-18T09:26:49.907Z,12.18
2022-10-18T09:29:48.912Z,9.50
2022-10-18T09:32:44.130Z,11.15
2022-10-18T09:37:58.212Z,8.68
2022-10-18T09:40:28.954Z,6.10
2022-10-18T09:43:03.033Z,7.43
2022-10-18T09:45:40.298Z,7.40
2022-10-18T09:48:21.625Z,6.47
2022-10-18T09:51:29.433Z,6.13
2022-10-18T09:54:12.184Z,7.38
2022-10-18T09:56:44.962Z,7.88
2022-10-18T09:59:32.961Z,6.28
2022-10-18T10:02:00.429Z,9.90
2022-10-18T10:04:28.298Z,11.45
2022-10-18T10:06:57.348Z,11.20
2022-10-18T10:09:31.461Z,6.80
2022-10-18T10:11:59.041Z,4.20
2022-10-18T10:14:30.431Z,4.75
2022-10-18T10:16:59.328Z,3.25
2022-10-18T10:19:28.443Z,2.95
2022-10-18T10:22:12.181Z,5.45
2022-10-18T10:24:49.500Z,5.38
2022-10-18T10:27:21.590Z,7.68
2022-10-18T10:29:53.801Z,5.63
2022-10-18T10:32:22.877Z,3.33
2022-10-18T10:34:51.092Z,6.63
2022-10-18T10:37:37.732Z,8.60
2022-10-18T10:40:28.876Z,7.65
2022-10-18T10:43:18.390Z,2.70
2022-10-18T10:46:12.957Z,2.95
2022-10-18T10:49:08.460Z,7.55
2022-10-18T10:51:43.851Z,6.28
2022-10-18T10:54:21.823Z,4.43
2022-10-18T10:57:26.379Z,11.35
2022-10-18T10:59:56.975Z,6.35
2022-10-18T11:02:32.184Z,4.20
2022-10-18T11:05:24.261Z,3.30
2022-10-18T11:07:56.548Z,6.22
2022-10-18T11:10:28.271Z,2.83
2022-10-18T11:13:24.865Z,6.35
2022-10-18T11:16:09.987Z,3.55
2022-10-18T11:18:38.257Z,4.00
2022-10-18T11:21:11.511Z,4.60
2022-10-18T11:23:41.579Z,5.50
2022-10-18T11:26:11.919Z,7.60
2022-10-18T11:29:33.838Z,7.30
2022-10-18T11:32:07.195Z,6.30
2022-10-18T11:34:40.813Z,5.40
2022-10-18T11:40:33.616Z,3.70
2022-10-18T11:43:09.317Z,3.55
2022-10-18T11:46:02.398Z,3.78
2022-10-18T11:48:41.735Z,9.65
2022-10-18T11:51:56.305Z,6.05
2022-10-18T11:55:02.372Z,3.10
2022-10-18T11:57:36.181Z,7.15
2022-10-18T12:00:25.501Z,3.15
2022-10-18T12:03:14.732Z,4.47
2022-10-18T12:05:45.954Z,5.07
2022-10-18T12:08:35.033Z,4.63
2022-10-18T12:11:09.846Z,7.45
2022-10-18T12:13:57.073Z,4.15
2022-10-18T12:16:49.605Z,4.72
2022-10-18T12:19:26.396Z,3.15
2022-10-18T12:21:57.974Z,6.07
2022-10-18T12:24:30.312Z,4.90
2022-10-18T12:27:00.490Z,8.10
2022-10-18T12:29:50.416Z,4.60
2022-10-18T12:32:27.278Z,5.25
2022-10-18T12:35:01.467Z,4.13
2022-10-18T12:37:45.749Z,5.38
2022-10-18T12:40:21.131Z,5.75
2022-10-18T12:42:52.012Z,5.55
2022-10-18T12:45:32.302Z,3.60
2022-10-18T12:48:01.677Z,3.30
2022-10-18T12:50:35.073Z,4.72
2022-10-18T12:53:02.413Z,3.58
2022-10-18T12:55:33.495Z,2.47
2022-10-18T12:58:04.173Z,3.78
2022-10-18T13:00:31.488Z,6.72
2022-10-18T13:03:14.297Z,3.38
2022-10-18T13:05:56.199Z,5.18
2022-10-18T13:08:38.230Z,6.30
2022-10-18T13:11:08.720Z,3.97
2022-10-18T13:13:50.974Z,4.18
2022-10-18T13:16:27.628Z,2.53
2022-10-18T13:19:17.925Z,4.30
2022-10-18T13:22:12.845Z,2.70
2022-10-18T13:24:46.381Z,3.47
2022-10-18T13:27:35.516Z,2.80
2022-10-18T13:30:26.010Z,3.65
2022-10-18T13:33:22.199Z,4.32
2022-10-18T13:36:05.359Z,4.32
2022-10-18T13:39:02.541Z,5.78
2022-10-18T13:41:34.540Z,3.35
2022-10-18T13:44:33.301Z,5.57
2022-10-18T13:47:00.684Z,4.28
2022-10-18T13:49:40.269Z,3.22
2022-10-18T13:52:29.731Z,5.07
2022-10-18T13:55:35.014Z,5.72
2022-10-18T13:58:44.608Z,4.72
2022-10-18T14:02:30.792Z,5.80
2022-10-18T14:05:24.484Z,3.50
2022-10-18T14:08:01.495Z,6.43
2022-10-18T14:11:02.741Z,4.15
2022-10-18T14:13:54.517Z,3.17
2022-10-18T14:16:43.160Z,2.70
2022-10-18T14:19:17.153Z,4.45
2022-10-18T14:21:58.094Z,2.47
2022-10-18T14:24:27.951Z,4.03
2022-10-18T14:27:15.905Z,4.82
2022-10-18T14:29:43.652Z,3.42
2022-10-18T14:32:28.250Z,1.92
2022-10-18T14:35:27.213Z,2.67
2022-10-18T14:37:46.605Z,3.38
2022-10-18T14:40:39.027Z,1.95
2022-10-18T14:43:09.607Z,3.33
2022-10-18T14:45:37.243Z,4.63
2022-10-18T14:48:14.686Z,3.83
2022-10-18T14:50:44.822Z,4.97
2022-10-18T14:53:25.148Z,5.57
2022-10-18T14:56:00.804Z,5.43
2022-10-18T14:58:28.808Z,8.35
2022-10-18T15:00:57.173Z,5.35
2022-10-18T15:03:26.272Z,5.43
2022-10-18T15:06:02.776Z,4.40
2022-10-18T15:08:40.235Z,3.17
2022-10-18T15:11:10.608Z,8.38
2022-10-18T15:13:49.432Z,8.48
2022-10-18T15:16:22.770Z,3.88
2022-10-18T15:19:14.981Z,3.58
2022-10-18T15:22:30.267Z,2.13
2022-10-18T15:25:27.977Z,6.30
2022-10-18T15:28:00.581Z,3.70
2022-10-18T15:30:41.087Z,6.97
2022-10-18T15:33:20.175Z,2.92
2022-10-18T15:35:48.429Z,4.30
2022-10-18T15:38:25.433Z,9.23
2022-10-18T15:40:53.291Z,6.22
2022-10-18T15:43:27.168Z,3.78
2022-10-18T15:46:03.491Z,6.85
2022-10-18T15:48:35.288Z,6.05
2022-10-18T15:51:05.553Z,5.07
2022-10-18T15:53:44.665Z,3.10
2022-10-18T15:56:31.106Z,6.60
2022-10-18T15:59:01.198Z,6.03
2022-10-18T16:01:44.347Z,9.30
2022-10-18T16:04:29.567Z,3.33
2022-10-18T16:06:58.024Z,7.07
2022-10-18T16:09:28.219Z,4.00
2022-10-18T16:12:01.926Z,5.20
2022-10-18T16:14:30.384Z,4.65
2022-10-18T16:17:04.312Z,5.35
2022-10-18T16:19:32.462Z,4.47
2022-10-18T16:22:06.080Z,9.35
2022-10-18T16:24:34.200Z,5.38
2022-10-18T16:27:01.534Z,3.90
2022-10-18T16:29:32.142Z,5.75
2022-10-18T16:32:01.166Z,5.90
2022-10-18T16:34:28.911Z,5.72
2022-10-18T16:36:56.367Z,2.65
2022-10-18T16:39:24.073Z,8.38
2022-10-18T16:41:51.747Z,5.07
2022-10-18T16:44:19.279Z,5.25
2022-10-18T16:46:50.958Z,6.05
2022-10-18T16:51:55.863Z,5.97
2022-10-18T16:54:23.657Z,7.50
2022-10-18T16:56:52.484Z,5.88
2022-10-18T16:59:38.048Z,3.30
2022-10-18T17:02:09.132Z,4.07
2022-10-18T17:04:36.565Z,6.70
2022-10-18T17:07:05.010Z,7.93
2022-10-18T17:09:34.895Z,5.82
2022-10-18T17:12:02.344Z,7.28
2022-10-18T17:14:29.739Z,6.20
2022-10-18T17:16:57.556Z,5.63
2022-10-18T17:19:25.003Z,5.40
2022-10-18T17:21:52.534Z,6.28
2022-10-18T17:24:19.969Z,5.40
2022-10-18T17:26:47.456Z,7.18
2022-10-18T17:29:15.030Z,5.35
2022-10-18T17:31:43.619Z,5.90
2022-10-18T17:34:11.060Z,6.65
2022-10-18T17:36:38.703Z,11.98
2022-10-18T17:39:06.132Z,6.90
2022-10-18T17:41:33.550Z,7.72
2022-10-18T17:44:03.529Z,6.47
2022-10-18T17:46:30.970Z,6.97
2022-10-18T17:48:58.746Z,6.60
2022-10-18T17:51:26.148Z,4.55
2022-10-18T17:53:54.466Z,9.00
2022-10-18T17:56:21.882Z,5.45
2022-10-18T17:58:52.736Z,8.15
2022-10-18T18:01:23.079Z,5.50
2022-10-18T18:03:50.803Z,6.20
2022-10-18T18:06:30.897Z,7.65
2022-10-18T18:09:00.005Z,4.30
2022-10-18T18:11:28.672Z,7.20
2022-10-18T18:13:56.580Z,7.70
2022-10-18T18:16:26.341Z,8.80
2022-10-18T18:18:56.070Z,5.53
2022-10-18T18:21:24.847Z,5.90
2022-10-18T18:23:52.322Z,6.18
2022-10-18T18:26:20.549Z,5.63
2022-10-18T18:28:48.921Z,6.25
2022-10-18T18:31:25.368Z,9.48
2022-10-18T18:33:55.210Z,7.55
2022-10-18T18:36:24.744Z,6.55
2022-10-18T18:38:56.902Z,9.30
2022-10-18T18:41:28.549Z,6.68
2022-10-18T18:44:05.046Z,10.70
2022-10-18T18:46:36.901Z,6.75
2022-10-18T18:49:06.025Z,10.15
2022-10-18T18:51:33.362Z,12.00
2022-10-18T18:54:00.880Z,8.25
2022-10-18T18:56:29.118Z,4.95
2022-10-18T18:58:59.646Z,7.28
2022-10-18T19:01:30.570Z,9.32
2022-10-18T19:03:59.851Z,7.13
2022-10-18T19:06:30.215Z,7.45
2022-10-18T19:09:03.058Z,8.90
2022-10-18T19:11:36.354Z,12.80
2022-10-18T19:14:04.823Z,7.68
2022-10-18T19:16:42.769Z,10.38
2022-10-18T19:19:18.653Z,8.43
2022-10-18T19:21:49.717Z,7.80
2022-10-18T19:24:18.350Z,8.25
2022-10-18T19:26:50.262Z,7.28
2022-10-18T19:29:25.377Z,14.90
2022-10-18T19:31:56.082Z,8.05
2022-10-18T19:34:26.360Z,10.90
2022-10-18T19:36:54.844Z,11.13
2022-10-18T19:39:25.885Z,9.00
2022-10-18T19:41:56.003Z,6.85
2022-10-18T19:44:25.537Z,8.20
2022-10-18T19:46:54.881Z,10.43
2022-10-18T19:49:23.428Z,8.77
2022-10-18T19:51:50.938Z,11.38
2022-10-18T19:54:18.803Z,13.40
2022-10-18T19:56:46.399Z,10.68
2022-10-18T19:59:16.234Z,12.27
2022-10-18T20:01:44.378Z,9.55
2022-10-18T20:04:13.123Z,12.77
2022-10-18T20:06:41.433Z,9.52
2022-10-18T20:09:13.358Z,11.88
2022-10-18T20:11:43.603Z,8.70
2022-10-18T20:14:11.014Z,7.47
2022-10-18T20:16:38.430Z,9.10
2022-10-18T20:19:07.610Z,9.60
2022-10-18T20:21:36.084Z,7.63
2022-10-18T20:24:05.601Z,13.93
2022-10-18T20:26:34.588Z,7.13
2022-10-18T20:29:02.170Z,8.57
2022-10-18T20:31:31.250Z,7.20
2022-10-18T20:34:04.125Z,10.32
2022-10-18T20:36:33.015Z,11.82
2022-10-18T20:39:00.712Z,11.05
2022-10-18T20:41:38.000Z,9.70
2022-10-18T20:44:08.464Z,10.95
2022-10-18T20:46:37.366Z,15.02
2022-10-18T20:49:06.918Z,12.70
2022-10-18T20:51:35.092Z,11.07
2022-10-18T20:56:34.275Z,11.13
2022-10-18T20:59:02.776Z,7.43
2022-10-18T21:01:34.903Z,7.57
2022-10-18T21:04:05.273Z,7.93
2022-10-18T21:06:38.245Z,9.23
2022-10-18T21:09:08.212Z,10.43
2022-10-18T21:11:38.108Z,8.40
2022-10-18T21:14:06.779Z,8.77
2022-10-18T21:16:35.533Z,12.35
2022-10-18T21:19:20.724Z,7.38
2022-10-18T21:21:50.497Z,10.30
2022-10-18T21:24:19.713Z,10.35
2022-10-18T21:26:47.981Z,12.73
2022-10-18T21:29:20.784Z,13.15
2022-10-18T21:31:49.749Z,9.43
2022-10-18T21:34:17.701Z,11.15
2022-10-18T21:36:46.574Z,9.55
2022-10-18T21:39:16.348Z,9.40
2022-10-18T21:41:44.272Z,8.73
2022-10-18T21:44:12.508Z,10.18
2022-10-18T21:46:40.604Z,9.38
2022-10-18T21:49:08.413Z,9.52
2022-10-18T21:51:36.317Z,8.50
2022-10-18T21:54:04.100Z,10.60
2022-10-18T21:56:34.533Z,8.23
2022-10-18T21:59:02.600Z,11.52
2022-10-18T22:01:34.468Z,9.30
2022-10-18T22:04:04.522Z,8.27
2022-10-18T22:09:08.429Z,8.65
2022-10-18T22:11:42.236Z,8.07
2022-10-18T22:14:10.318Z,8.20
2022-10-18T22:16:37.867Z,8.88
2022-10-18T22:19:06.769Z,6.65
2022-10-18T22:21:34.834Z,9.32
2022-10-18T22:24:06.259Z,9.68
2022-10-18T22:26:36.771Z,9.80
2022-10-18T22:29:07.264Z,6.63
2022-10-18T22:31:38.075Z,9.85
2022-10-18T22:34:08.534Z,9.57
2022-10-18T22:36:36.061Z,8.85
2022-10-18T22:39:05.472Z,7.07
2022-10-18T22:41:33.455Z,8.70
2022-10-18T22:44:03.516Z,11.85
2022-10-18T22:46:33.152Z,11.52
2022-10-18T22:49:00.815Z,14.77
2022-10-18T22:51:28.170Z,7.30
2022-10-18T22:53:55.946Z,10.95
2022-10-18T22:56:23.570Z,8.45
2022-10-18T22:58:51.216Z,10.13
2022-10-18T23:01:23.340Z,10.45
2022-10-18T23:03:59.056Z,11.35
2022-10-18T23:06:28.879Z,9.50
2022-10-18T23:08:57.973Z,8.63
2022-10-18T23:11:26.673Z,13.15
2022-10-18T23:13:54.540Z,10.40
2022-10-18T23:16:22.222Z,13.55
2022-10-18T23:18:51.881Z,9.68
2022-10-18T23:21:20.297Z,10.45
2022-10-18T23:23:47.635Z,9.25
2022-10-18T23:26:18.064Z,8.80
2022-10-18T23:28:48.149Z,10.18
2022-10-18T23:31:22.299Z,9.30
2022-10-18T23:33:52.287Z,10.88
2022-10-18T23:36:20.358Z,11.45
2022-10-18T23:38:47.743Z,9.25
2022-10-18T23:41:16.026Z,13.10
2022-10-18T23:43:44.053Z,8.30
2022-10-18T23:46:12.605Z,13.55
2022-10-18T23:48:40.280Z,8.23
2022-10-18T23:51:07.595Z,9.98
2022-10-18T23:53:35.317Z,8.43
2022-10-18T23:56:07.849Z,8.82
2022-10-18T23:58:36.553Z,9.60
